createdAt,value
2018-01-27T00:01:22.987Z,40.20
2018-01-27T00:03:51.597Z,50.78
2018-01-27T00:06:19.178Z,40.85
2018-01-27T00:08:46.743Z,50.40
2018-01-27T00:13:52.107Z,52.47
2018-01-27T00:16:19.728Z,42.78
2018-01-27T00:18:48.194Z,40.10
2018-01-27T00:21:15.786Z,42.85
2018-01-27T00:23:43.423Z,43.15
2018-01-27T00:26:11.834Z,47.72
2018-01-27T00:28:40.495Z,40.80
2018-01-27T00:31:08.894Z,42.97
2018-01-27T00:33:36.441Z,49.50
2018-01-27T00:36:04.209Z,46.10
2018-01-27T00:38:31.757Z,55.20
2018-01-27T00:41:00.263Z,55.90
2018-01-27T00:43:28.195Z,51.80
2018-01-27T00:45:55.733Z,45.72
2018-01-27T00:48:23.344Z,51.42
2018-01-27T00:50:50.939Z,43.00
2018-01-27T00:53:18.534Z,43.90
2018-01-27T00:55:46.168Z,49.33
2018-01-27T00:58:13.755Z,49.45
2018-01-27T01:00:41.276Z,40.95
2018-01-27T01:03:08.839Z,63.92
2018-01-27T01:05:36.412Z,46.30
2018-01-27T01:08:04.084Z,41.85
2018-01-27T01:10:31.602Z,45.20
2018-01-27T01:12:59.404Z,55.92
2018-01-27T01:15:26.974Z,50.85
2018-01-27T01:17:54.611Z,52.05
2018-01-27T01:20:22.161Z,49.85
2018-01-27T01:22:49.772Z,44.30
2018-01-27T01:25:17.332Z,46.83
2018-01-27T01:27:44.893Z,55.95
2018-01-27T01:30:12.487Z,49.00
2018-01-27T01:32:40.860Z,50.72
2018-01-27T01:35:08.400Z,54.30
2018-01-27T01:37:35.947Z,50.67
2018-01-27T01:40:03.533Z,52.62
2018-01-27T01:42:36.749Z,46.60
2018-01-27T01:45:06.005Z,47.50
2018-01-27T01:47:33.574Z,47.83
2018-01-27T01:50:01.118Z,53.03
2018-01-27T01:52:28.693Z,50.33
2018-01-27T01:54:56.273Z,61.55
2018-01-27T01:57:24.628Z,50.08
2018-01-27T01:59:53.016Z,55.95
2018-01-27T02:02:20.606Z,48.55
2018-01-27T02:04:48.195Z,49.13
2018-01-27T02:07:15.735Z,51.67
2018-01-27T02:09:43.290Z,69.57
2018-01-27T02:12:11.659Z,54.30
2018-01-27T02:14:39.961Z,54.50
2018-01-27T02:17:07.492Z,63.00
2018-01-27T02:19:35.835Z,58.05
2018-01-27T02:22:03.388Z,58.67
2018-01-27T02:24:31.697Z,55.95
2018-01-27T02:26:59.383Z,64.28
2018-01-27T02:29:27.036Z,60.65
2018-01-27T02:31:54.608Z,55.58
2018-01-27T02:34:22.155Z,59.10
2018-01-27T02:36:50.482Z,59.17
2018-01-27T02:39:18.051Z,59.83
2018-01-27T02:41:45.674Z,52.50
2018-01-27T02:44:13.283Z,68.07
2018-01-27T02:46:40.842Z,61.85
2018-01-27T02:49:08.733Z,63.10
2018-01-27T02:51:36.271Z,62.53
2018-01-27T02:54:03.869Z,58.33
2018-01-27T02:56:31.476Z,74.75
2018-01-27T02:58:59.021Z,56.40
2018-01-27T03:01:26.842Z,55.60
2018-01-27T03:03:59.830Z,58.55
2018-01-27T03:06:28.148Z,58.47
2018-01-27T03:08:55.704Z,62.85
2018-01-27T03:11:23.303Z,61.35
2018-01-27T03:13:50.887Z,56.85
2018-01-27T03:16:19.307Z,60.15
2018-01-27T03:18:46.879Z,59.03
2018-01-27T03:21:14.877Z,66.05
2018-01-27T03:23:42.538Z,59.75
2018-01-27T03:26:10.104Z,61.67
2018-01-27T03:28:37.677Z,66.60
2018-01-27T03:31:06.004Z,59.20
2018-01-27T03:33:33.560Z,64.53
2018-01-27T03:36:01.183Z,61.03
2018-01-27T03:38:28.758Z,62.15
2018-01-27T03:40:56.296Z,61.70
2018-01-27T03:43:23.979Z,60.28
2018-01-27T03:45:51.608Z,60.63
2018-01-27T03:48:19.175Z,64.95
2018-01-27T03:50:47.482Z,61.72
2018-01-27T03:53:15.055Z,64.12
2018-01-27T03:55:42.720Z,65.78
2018-01-27T03:58:10.312Z,63.83
2018-01-27T04:00:37.874Z,64.40
2018-01-27T04:03:05.471Z,71.15
2018-01-27T04:05:33.788Z,64.75
2018-01-27T04:08:01.733Z,64.80
2018-01-27T04:10:29.264Z,70.20
2018-01-27T04:12:57.592Z,79.50
2018-01-27T04:15:25.154Z,71.97
2018-01-27T04:17:52.807Z,73.78
2018-01-27T04:20:20.456Z,79.07
2018-01-27T04:22:48.006Z,70.90
2018-01-27T04:25:15.626Z,85.55
2018-01-27T04:27:43.207Z,89.40
2018-01-27T04:30:10.800Z,81.60
2018-01-27T04:32:38.353Z,75.25
2018-01-27T04:35:05.920Z,80.55
2018-01-27T04:37:33.694Z,70.22
2018-01-27T04:40:01.250Z,83.20
2018-01-27T04:42:28.895Z,95.55
2018-01-27T04:44:56.470Z,80.45
2018-01-27T04:47:24.149Z,87.10
2018-01-27T04:49:51.825Z,68.12
2018-01-27T04:52:19.440Z,74.47
2018-01-27T04:54:47.515Z,92.82
2018-01-27T04:57:15.115Z,77.80
2018-01-27T04:59:42.718Z,93.75
2018-01-27T05:02:10.735Z,81.50
2018-01-27T05:04:39.195Z,104.63
2018-01-27T05:07:07.696Z,102.18
2018-01-27T05:09:35.438Z,97.53
2018-01-27T05:12:03.011Z,89.53
2018-01-27T05:14:30.581Z,96.50
2018-01-27T05:16:58.569Z,89.03
2018-01-27T05:19:26.165Z,74.32
2018-01-27T05:21:55.446Z,88.47
2018-01-27T05:24:23.023Z,84.70
2018-01-27T05:26:51.331Z,81.55
2018-01-27T05:29:19.387Z,73.28
2018-01-27T05:31:46.969Z,81.50
2018-01-27T05:34:14.525Z,81.07
2018-01-27T05:36:42.184Z,85.85
2018-01-27T05:39:09.797Z,87.32
2018-01-27T05:41:37.389Z,81.97
2018-01-27T05:44:05.009Z,66.80
2018-01-27T05:46:32.606Z,81.12
2018-01-27T05:49:00.190Z,76.53
2018-01-27T05:51:28.070Z,81.85
2018-01-27T05:53:55.653Z,81.93
2018-01-27T05:56:23.217Z,76.75
2018-01-27T05:58:52.045Z,73.85
2018-01-27T06:01:19.602Z,76.25
2018-01-27T06:03:47.270Z,84.87
2018-01-27T06:06:14.827Z,72.75
2018-01-27T06:08:42.401Z,77.15
2018-01-27T06:11:10.159Z,95.05
2018-01-27T06:13:37.717Z,70.05
2018-01-27T06:16:05.319Z,70.25
2018-01-27T06:18:32.961Z,78.80
2018-01-27T06:21:00.599Z,81.45
2018-01-27T06:23:28.263Z,84.15
2018-01-27T06:25:55.832Z,72.15
2018-01-27T06:28:23.669Z,90.03
2018-01-27T06:30:51.219Z,77.28
2018-01-27T06:33:18.748Z,72.05
2018-01-27T06:35:46.327Z,75.18
2018-01-27T06:38:14.135Z,80.10
2018-01-27T06:40:41.775Z,75.65
2018-01-27T06:43:09.320Z,83.00
2018-01-27T06:45:36.919Z,73.57
2018-01-27T06:48:04.546Z,87.55
2018-01-27T06:50:32.117Z,81.15
2018-01-27T06:52:59.772Z,71.68
2018-01-27T06:55:27.367Z,61.45
2018-01-27T06:57:55.707Z,62.00
2018-01-27T07:00:23.390Z,65.25
2018-01-27T07:02:51.038Z,70.57
2018-01-27T07:05:18.698Z,75.80
2018-01-27T07:07:46.288Z,75.93
2018-01-27T07:10:14.652Z,65.28
2018-01-27T07:12:42.260Z,70.85
2018-01-27T07:15:10.613Z,71.62
2018-01-27T07:17:38.285Z,68.62
2018-01-27T07:20:06.704Z,63.97
2018-01-27T07:22:34.275Z,69.53
2018-01-27T07:25:01.827Z,83.43
2018-01-27T07:27:29.383Z,92.97
2018-01-27T07:29:57.829Z,72.47
2018-01-27T07:32:26.156Z,68.97
2018-01-27T07:34:53.839Z,72.85
2018-01-27T07:37:21.421Z,81.97
2018-01-27T07:39:49.784Z,85.30
2018-01-27T07:42:17.426Z,77.32
2018-01-27T07:44:45.788Z,72.40
2018-01-27T07:47:13.350Z,70.68
2018-01-27T07:49:41.167Z,77.95
2018-01-27T07:52:09.809Z,82.90
2018-01-27T07:54:39.907Z,84.50
2018-01-27T07:57:08.232Z,90.32
2018-01-27T07:59:35.811Z,87.28
2018-01-27T08:02:04.139Z,73.12
2018-01-27T08:04:31.721Z,83.43
2018-01-27T08:06:59.351Z,75.57
2018-01-27T08:09:26.884Z,79.82
2018-01-27T08:11:55.244Z,73.15
2018-01-27T08:14:22.810Z,87.07
2018-01-27T08:16:51.894Z,84.72
2018-01-27T08:19:19.495Z,86.63
2018-01-27T08:21:47.068Z,86.97
2018-01-27T08:24:14.684Z,71.55
2018-01-27T08:26:43.824Z,74.95
2018-01-27T08:29:12.169Z,83.62
2018-01-27T08:31:40.812Z,82.15
2018-01-27T08:34:08.374Z,75.25
2018-01-27T08:36:35.915Z,73.78
2018-01-27T08:39:04.294Z,85.93
2018-01-27T08:41:31.914Z,85.18
2018-01-27T08:43:59.488Z,85.75
2018-01-27T08:46:27.869Z,91.47
2018-01-27T08:48:56.797Z,95.45
2018-01-27T08:51:24.400Z,85.87
2018-01-27T08:53:51.987Z,84.18
2018-01-27T08:56:19.620Z,107.55
2018-01-27T08:58:47.180Z,76.45
2018-01-27T09:01:14.787Z,94.45
2018-01-27T09:03:42.384Z,81.85
2018-01-27T09:06:09.945Z,75.55
2018-01-27T09:08:37.533Z,85.90
2018-01-27T09:11:05.144Z,77.12
2018-01-27T09:13:32.729Z,83.15
2018-01-27T09:16:00.298Z,71.55
2018-01-27T09:18:27.897Z,73.35
2018-01-27T09:20:55.500Z,70.75
2018-01-27T09:23:23.123Z,62.42
2018-01-27T09:25:51.579Z,62.50
2018-01-27T09:28:20.023Z,67.65
2018-01-27T09:30:47.591Z,64.85
2018-01-27T09:33:15.150Z,65.50
2018-01-27T09:35:43.517Z,67.35
2018-01-27T09:38:11.050Z,60.00
2018-01-27T09:40:39.489Z,53.85
2018-01-27T09:43:07.068Z,62.50
2018-01-27T09:45:34.624Z,55.33
2018-01-27T09:48:02.192Z,52.83
2018-01-27T09:50:30.515Z,59.00
2018-01-27T09:52:58.115Z,57.13
2018-01-27T09:55:25.850Z,47.70
2018-01-27T09:57:53.459Z,67.05
2018-01-27T10:00:22.246Z,47.67
2018-01-27T10:02:50.682Z,41.28
2018-01-27T10:05:18.638Z,43.47
2018-01-27T10:07:46.237Z,47.97
2018-01-27T10:10:13.768Z,30.27
2018-01-27T10:12:41.368Z,33.92
2018-01-27T10:15:08.989Z,25.48
2018-01-27T10:17:36.536Z,21.65
2018-01-27T10:20:04.079Z,28.83
2018-01-27T10:22:31.644Z,20.40
2018-01-27T10:25:00.118Z,29.02
2018-01-27T10:27:27.692Z,27.08
2018-01-27T10:29:55.296Z,27.48
2018-01-27T10:32:22.983Z,28.00
2018-01-27T10:34:50.575Z,32.88
2018-01-27T10:37:18.155Z,36.22
2018-01-27T10:39:45.741Z,34.25
2018-01-27T10:42:14.129Z,39.33
2018-01-27T10:44:42.475Z,57.70
2018-01-27T10:47:10.136Z,42.67
2018-01-27T10:49:37.722Z,39.55
2018-01-27T10:52:05.306Z,45.60
2018-01-27T10:54:32.908Z,52.42
2018-01-27T10:57:00.494Z,35.70
2018-01-27T10:59:28.419Z,65.82
2018-01-27T11:01:55.989Z,46.83
2018-01-27T11:04:23.537Z,42.55
2018-01-27T11:06:51.905Z,44.30
2018-01-27T11:09:19.491Z,47.00
2018-01-27T11:11:47.030Z,46.90
2018-01-27T11:14:14.610Z,49.03
2018-01-27T11:16:42.953Z,45.05
2018-01-27T11:19:10.496Z,44.97
2018-01-27T11:21:38.920Z,44.60
2018-01-27T11:24:07.196Z,47.15
2018-01-27T11:26:34.793Z,45.10
2018-01-27T11:29:03.249Z,43.40
2018-01-27T11:31:31.096Z,47.08
2018-01-27T11:33:58.665Z,43.78
2018-01-27T11:36:26.242Z,46.13
2018-01-27T11:38:53.812Z,41.53
2018-01-27T11:41:22.126Z,43.55
2018-01-27T11:43:50.455Z,36.53
2018-01-27T11:46:18.196Z,38.25
2018-01-27T11:48:45.745Z,50.40
2018-01-27T11:51:13.313Z,48.15
2018-01-27T11:53:41.023Z,41.72
2018-01-27T11:56:08.565Z,45.90
2018-01-27T11:58:37.305Z,42.25
2018-01-27T12:01:04.908Z,45.35
2018-01-27T12:03:32.592Z,44.00
2018-01-27T12:06:00.228Z,37.50
2018-01-27T12:08:28.595Z,46.33
2018-01-27T12:10:56.240Z,33.75
2018-01-27T12:13:24.585Z,40.12
2018-01-27T12:15:52.161Z,37.22
2018-01-27T12:18:19.712Z,33.17
2018-01-27T12:20:47.394Z,39.42
2018-01-27T12:23:15.020Z,31.12
2018-01-27T12:25:42.646Z,35.63
2018-01-27T12:28:11.038Z,43.25
2018-01-27T12:30:38.648Z,31.80
2018-01-27T12:33:06.272Z,34.65
2018-01-27T12:35:33.849Z,41.60
2018-01-27T12:38:01.388Z,34.78
2018-01-27T12:40:29.803Z,39.60
2018-01-27T12:42:57.450Z,36.88
2018-01-27T12:45:25.012Z,39.50
2018-01-27T12:47:52.629Z,41.05
2018-01-27T12:50:21.032Z,41.17
2018-01-27T12:52:51.903Z,39.63
2018-01-27T12:55:19.580Z,40.00
2018-01-27T12:57:48.129Z,36.95
2018-01-27T13:00:15.755Z,45.45
2018-01-27T13:02:44.105Z,41.85
2018-01-27T13:05:11.703Z,52.40
2018-01-27T13:07:40.034Z,38.65
2018-01-27T13:10:07.757Z,51.40
2018-01-27T13:12:36.217Z,41.47
2018-01-27T13:15:04.565Z,47.30
2018-01-27T13:17:32.158Z,40.50
2018-01-27T13:19:59.717Z,52.72
2018-01-27T13:22:27.282Z,55.40
2018-01-27T13:24:54.855Z,35.83
2018-01-27T13:27:22.399Z,37.03
2018-01-27T13:29:50.004Z,42.35
2018-01-27T13:32:17.565Z,40.72
2018-01-27T13:34:45.181Z,41.92
2018-01-27T13:37:12.728Z,38.75
2018-01-27T13:39:41.211Z,35.75
2018-01-27T13:42:09.627Z,39.10
2018-01-27T13:44:37.272Z,41.05
2018-01-27T13:47:05.870Z,36.20
2018-01-27T13:49:33.485Z,38.80
2018-01-27T13:52:01.095Z,37.60
2018-01-27T13:54:28.770Z,39.60
2018-01-27T13:56:56.436Z,43.47
2018-01-27T13:59:24.003Z,33.28
2018-01-27T14:01:51.628Z,42.42
2018-01-27T14:04:19.303Z,33.72
2018-01-27T14:06:46.854Z,38.78
2018-01-27T14:09:14.437Z,36.92
2018-01-27T14:11:42.013Z,34.35
2018-01-27T14:14:09.603Z,42.62
2018-01-27T14:16:37.940Z,35.10
2018-01-27T14:19:05.537Z,37.40
2018-01-27T14:21:33.146Z,43.80
2018-01-27T14:24:00.717Z,36.75
2018-01-27T14:26:30.085Z,34.90
2018-01-27T14:28:57.715Z,32.33
2018-01-27T14:31:25.306Z,35.92
2018-01-27T14:33:52.932Z,32.45
2018-01-27T14:36:32.448Z,35.38
2018-01-27T14:39:00.771Z,25.42
2018-01-27T14:41:28.327Z,24.75
2018-01-27T14:43:56.001Z,28.23
2018-01-27T14:46:23.589Z,32.03
2018-01-27T14:48:52.003Z,32.08
2018-01-27T14:51:20.378Z,38.17
2018-01-27T14:53:47.953Z,38.83
2018-01-27T14:56:15.549Z,35.20
2018-01-27T14:58:43.108Z,31.87
2018-01-27T15:01:10.704Z,37.55
2018-01-27T15:03:38.981Z,28.75
2018-01-27T15:06:07.358Z,45.03
2018-01-27T15:08:35.001Z,38.95
2018-01-27T15:11:02.645Z,39.28
2018-01-27T15:13:30.207Z,37.03
2018-01-27T15:15:57.837Z,34.95
2018-01-27T15:18:26.181Z,27.58
2018-01-27T15:20:53.841Z,36.75
2018-01-27T15:23:21.460Z,35.88
2018-01-27T15:25:49.108Z,37.78
2018-01-27T15:28:16.732Z,32.30
2018-01-27T15:30:44.311Z,33.15
2018-01-27T15:33:11.866Z,40.20
2018-01-27T15:35:40.226Z,38.28
2018-01-27T15:38:07.806Z,37.50
2018-01-27T15:40:35.511Z,38.47
2018-01-27T15:43:03.077Z,34.47
2018-01-27T15:45:30.734Z,42.75
2018-01-27T15:47:58.299Z,36.08
2018-01-27T15:50:25.892Z,34.95
2018-01-27T15:52:53.472Z,37.22
2018-01-27T15:55:21.146Z,40.28
2018-01-27T15:57:49.321Z,43.92
2018-01-27T16:00:16.923Z,37.58
2018-01-27T16:02:44.562Z,42.95
2018-01-27T16:05:12.163Z,48.08
2018-01-27T16:07:39.770Z,43.25
2018-01-27T16:10:07.413Z,37.25
2018-01-27T16:12:34.979Z,31.70
2018-01-27T16:15:02.552Z,40.20
2018-01-27T16:17:30.106Z,35.47
2018-01-27T16:19:57.725Z,37.65
2018-01-27T16:22:25.345Z,36.25
2018-01-27T16:24:52.924Z,38.67
2018-01-27T16:27:20.533Z,45.40
2018-01-27T16:29:48.120Z,37.78
2018-01-27T16:32:15.652Z,43.05
2018-01-27T16:34:44.089Z,35.47
2018-01-27T16:37:11.709Z,48.72
2018-01-27T16:39:39.333Z,40.50
2018-01-27T16:42:07.468Z,42.40
2018-01-27T16:44:35.113Z,46.28
2018-01-27T16:47:02.669Z,41.88
2018-01-27T16:49:30.299Z,33.70
2018-01-27T16:51:58.739Z,38.97
2018-01-27T16:54:26.299Z,35.55
2018-01-27T16:56:53.853Z,38.05
2018-01-27T16:59:21.436Z,36.60
2018-01-27T17:01:49.074Z,36.80
2018-01-27T17:04:16.738Z,42.40
2018-01-27T17:06:44.322Z,35.67
2018-01-27T17:09:11.886Z,36.80
2018-01-27T17:11:39.494Z,40.47
2018-01-27T17:14:07.080Z,33.38
2018-01-27T17:16:34.659Z,36.03
2018-01-27T17:19:02.250Z,33.60
2018-01-27T17:21:29.837Z,39.47
2018-01-27T17:23:57.443Z,47.50
2018-01-27T17:26:25.040Z,31.23
2018-01-27T17:28:52.650Z,34.60
2018-01-27T17:31:20.221Z,37.53
2018-01-27T17:33:47.774Z,36.17
2018-01-27T17:36:15.421Z,39.13
2018-01-27T17:38:42.980Z,35.75
2018-01-27T17:41:10.564Z,37.03
2018-01-27T17:43:38.200Z,46.65
2018-01-27T17:46:05.797Z,44.70
2018-01-27T17:48:34.222Z,36.67
2018-01-27T17:51:01.781Z,36.10
2018-01-27T17:53:29.414Z,41.08
2018-01-27T17:55:57.796Z,37.40
2018-01-27T17:58:25.381Z,34.67
2018-01-27T18:00:53.009Z,33.67
2018-01-27T18:03:21.360Z,32.70
2018-01-27T18:05:48.959Z,36.25
2018-01-27T18:08:16.588Z,33.80
2018-01-27T18:10:44.163Z,41.92
2018-01-27T18:13:12.486Z,30.83
2018-01-27T18:15:40.114Z,36.67
2018-01-27T18:18:07.722Z,27.75
2018-01-27T18:20:35.291Z,40.15
2018-01-27T18:23:03.092Z,41.17
2018-01-27T18:25:31.585Z,22.10
2018-01-27T18:27:59.198Z,38.97
2018-01-27T18:30:26.838Z,32.20
2018-01-27T18:32:54.506Z,39.58
2018-01-27T18:35:22.149Z,32.05
2018-01-27T18:37:49.745Z,40.40
2018-01-27T18:40:17.335Z,34.20
2018-01-27T18:42:45.788Z,27.67
2018-01-27T18:45:13.361Z,25.05
2018-01-27T18:47:40.959Z,34.42
2018-01-27T18:50:08.597Z,26.83
2018-01-27T18:52:37.021Z,26.75
2018-01-27T18:55:04.662Z,25.58
2018-01-27T18:57:32.278Z,24.85
2018-01-27T18:59:59.867Z,19.75
2018-01-27T19:02:28.209Z,38.50
2018-01-27T19:04:55.972Z,24.05
2018-01-27T19:07:23.650Z,21.75
2018-01-27T19:09:51.266Z,26.10
2018-01-27T19:12:18.842Z,28.80
2018-01-27T19:14:47.278Z,31.17
2018-01-27T19:17:14.898Z,31.85
2018-01-27T19:19:42.506Z,30.27
2018-01-27T19:22:10.122Z,23.33
2018-01-27T19:24:37.998Z,26.92
2018-01-27T19:27:05.609Z,23.05
2018-01-27T19:29:33.230Z,17.65
2018-01-27T19:32:00.894Z,31.98
2018-01-27T19:34:28.493Z,20.50
2018-01-27T19:36:56.042Z,19.33
2018-01-27T19:39:24.325Z,24.08
2018-01-27T19:41:52.000Z,19.20
2018-01-27T19:44:19.585Z,21.52
2018-01-27T19:46:47.217Z,22.77
2018-01-27T19:49:14.875Z,26.75
2018-01-27T19:51:42.444Z,19.45
2018-01-27T19:54:10.030Z,17.75
2018-01-27T19:56:38.476Z,20.73
2018-01-27T19:59:06.224Z,18.62
2018-01-27T20:01:33.974Z,17.30
2018-01-27T20:04:02.330Z,15.27
2018-01-27T20:06:30.945Z,10.00
2018-01-27T20:08:59.300Z,18.23
2018-01-27T20:11:26.978Z,14.98
2018-01-27T20:13:55.339Z,11.10
2018-01-27T20:16:22.940Z,18.05
2018-01-27T20:18:50.578Z,15.05
2018-01-27T20:21:18.159Z,9.85
2018-01-27T20:23:45.975Z,14.52
2018-01-27T20:26:13.556Z,15.07
2018-01-27T20:28:41.642Z,12.02
2018-01-27T20:31:10.012Z,13.27
2018-01-27T20:33:38.511Z,17.65
2018-01-27T20:36:07.021Z,12.77
2018-01-27T20:38:34.577Z,11.12
2018-01-27T20:41:02.182Z,11.05
2018-01-27T20:43:29.715Z,10.50
2018-01-27T20:45:57.368Z,9.95
2018-01-27T20:48:25.038Z,6.85
2018-01-27T20:50:53.413Z,11.12
2018-01-27T20:53:20.987Z,8.10
2018-01-27T20:55:48.568Z,12.37
2018-01-27T20:58:16.129Z,10.80
2018-01-27T21:00:43.716Z,10.77
2018-01-27T21:03:11.345Z,10.90
2018-01-27T21:05:38.996Z,6.10
2018-01-27T21:08:06.721Z,5.70
2018-01-27T21:10:34.375Z,8.10
2018-01-27T21:13:01.956Z,9.57
2018-01-27T21:15:29.726Z,11.50
2018-01-27T21:17:58.143Z,15.50
2018-01-27T21:20:25.780Z,7.97
2018-01-27T21:22:53.619Z,9.95
2018-01-27T21:25:21.177Z,10.27
2018-01-27T21:30:39.544Z,8.23
2018-01-27T21:33:07.141Z,9.38
2018-01-27T21:35:34.769Z,5.10
2018-01-27T21:38:02.439Z,15.20
2018-01-27T21:40:30.224Z,9.13
2018-01-27T21:42:57.827Z,9.75
2018-01-27T21:45:26.145Z,9.18
2018-01-27T21:47:53.748Z,7.07
2018-01-27T21:50:22.105Z,6.22
2018-01-27T21:52:49.689Z,5.95
2018-01-27T21:55:17.371Z,6.35
2018-01-27T21:57:45.728Z,8.60
2018-01-27T22:00:14.071Z,8.63
2018-01-27T22:02:42.416Z,9.80
2018-01-27T22:05:09.993Z,8.40
2018-01-27T22:07:37.565Z,8.13
2018-01-27T22:10:05.117Z,8.13
2018-01-27T22:12:32.660Z,6.20
2018-01-27T22:15:00.741Z,8.40
2018-01-27T22:17:28.355Z,7.00
2018-01-27T22:19:56.721Z,8.02
2018-01-27T22:22:24.436Z,15.15
2018-01-27T22:24:51.982Z,9.68
2018-01-27T22:27:19.572Z,8.10
2018-01-27T22:29:47.141Z,7.25
2018-01-27T22:32:14.745Z,13.02
2018-01-27T22:34:43.191Z,10.00
2018-01-27T22:37:11.589Z,9.77
2018-01-27T22:39:39.405Z,9.60
2018-01-27T22:42:07.750Z,15.25
2018-01-27T22:44:36.662Z,14.02
2018-01-27T22:47:04.758Z,11.65
2018-01-27T22:49:32.362Z,14.87
2018-01-27T22:51:59.967Z,9.60
2018-01-27T22:54:27.543Z,13.35
2018-01-27T22:56:55.043Z,10.65
2018-01-27T22:59:22.625Z,12.73
2018-01-27T23:01:50.919Z,11.55
2018-01-27T23:04:18.562Z,11.23
2018-01-27T23:06:46.115Z,13.18
2018-01-27T23:09:14.455Z,13.85
2018-01-27T23:11:42.034Z,13.80
2018-01-27T23:14:10.381Z,14.60
2018-01-27T23:16:38.020Z,12.65
2018-01-27T23:19:05.596Z,16.85
2018-01-27T23:21:33.202Z,11.68
2018-01-27T23:24:01.034Z,12.70
2018-01-27T23:26:28.961Z,12.77
2018-01-27T23:28:56.701Z,11.70
2018-01-27T23:31:25.273Z,15.50
2018-01-27T23:33:53.105Z,15.25
2018-01-27T23:36:21.738Z,14.27
2018-01-27T23:38:49.739Z,13.38
2018-01-27T23:41:17.998Z,10.98
2018-01-27T23:43:45.725Z,13.88
2018-01-27T23:46:13.896Z,18.10
2018-01-27T23:48:41.799Z,12.52
2018-01-27T23:51:09.800Z,13.23
2018-01-27T23:53:37.690Z,12.02
2018-01-27T23:56:05.393Z,14.63
2018-01-27T23:58:33.247Z,18.95
